Time;durP1;ratioP1;P1;durP2;ratioP2;P2;SDS_P1;SDS_P2;PMS_P1;PMS_P2;Temp;Humidity;BMP_temperature;BMP_pressure;BME280_temperature;BME280_humidity;BME280_pressure;Samples;Min_cycle;Max_cycle;Signal;HPM_P1;HPM_P2
2022/05/29 00:01:48;;;;;;;1.27;0.80;;;;;;;;;;5055002;28;20201;-82
2022/05/29 00:04:16;;;;;;;1.35;1.00;;;;;;;;;;5054848;28;20216;-82
2022/05/29 00:06:47;;;;;;;1.10;1.00;;;;;;;;;;5055294;28;20221;-81
2022/05/29 00:09:18;;;;;;;1.60;1.10;;;;;;;;;;5055418;28;20698;-82
2022/05/29 00:11:46;;;;;;;2.65;1.40;;;;;;;;;;5055086;28;20182;-82
2022/05/29 00:14:13;;;;;;;2.17;1.10;;;;;;;;;;5054958;28;20201;-82
2022/05/29 00:16:42;;;;;;;1.00;1.00;;;;;;;;;;5054834;28;20216;-82
2022/05/29 00:19:09;;;;;;;1.90;1.15;;;;;;;;;;5054732;28;20225;-81
2022/05/29 00:21:38;;;;;;;2.53;1.48;;;;;;;;;;5054478;28;20210;-82
2022/05/29 00:24:07;;;;;;;3.00;2.67;;;;;;;;;;5055323;28;20193;-82
2022/05/29 00:26:34;;;;;;;2.70;1.50;;;;;;;;;;5054678;28;20252;-82
2022/05/29 00:29:02;;;;;;;3.47;1.60;;;;;;;;;;5054728;28;20225;-82
2022/05/29 00:31:29;;;;;;;2.72;1.40;;;;;;;;;;5055219;28;20209;-82
2022/05/29 00:33:58;;;;;;;1.58;1.10;;;;;;;;;;5055386;28;20555;-82
2022/05/29 00:36:34;;;;;;;1.42;1.10;;;;;;;;;;5055210;28;20615;-82
2022/05/29 00:39:03;;;;;;;3.90;1.60;;;;;;;;;;5054654;28;20237;-82
2022/05/29 00:41:34;;;;;;;1.77;1.30;;;;;;;;;;5054927;28;20741;-82
2022/05/29 00:44:17;;;;;;;1.63;1.30;;;;;;;;;;5054672;28;20216;-82
2022/05/29 00:46:47;;;;;;;2.15;1.27;;;;;;;;;;5054736;28;20709;-82
2022/05/29 00:49:18;;;;;;;3.00;1.20;;;;;;;;;;5063588;28;20217;-82
2022/05/29 00:51:49;;;;;;;1.52;1.17;;;;;;;;;;5074971;28;20185;-82
2022/05/29 00:54:17;;;;;;;1.27;1.10;;;;;;;;;;5074761;28;20201;-82
2022/05/29 00:56:44;;;;;;;1.20;1.00;;;;;;;;;;5074834;28;20197;-82
2022/05/29 00:59:16;;;;;;;1.10;1.00;;;;;;;;;;5074907;28;20564;-82
2022/05/29 01:01:44;;;;;;;2.47;0.93;;;;;;;;;;5074409;28;20208;-82
2022/05/29 01:04:12;;;;;;;2.67;1.10;;;;;;;;;;5075218;28;20211;-82
2022/05/29 01:06:41;;;;;;;2.92;0.93;;;;;;;;;;5074658;28;20223;-82
2022/05/29 01:09:10;;;;;;;1.15;0.88;;;;;;;;;;5074820;28;20220;-82
2022/05/29 01:11:57;;;;;;;1.00;0.90;;;;;;;;;;5074640;28;20201;-81
2022/05/29 01:14:29;;;;;;;1.52;1.30;;;;;;;;;;5074608;28;20235;-82
2022/05/29 01:17:08;;;;;;;1.45;0.90;;;;;;;;;;5074586;28;20201;-81
2022/05/29 01:20:02;;;;;;;2.58;1.27;;;;;;;;;;5062661;28;20201;-82
2022/05/29 01:23:23;;;;;;;2.13;1.00;;;;;;;;;;5054485;28;20197;-82
2022/05/29 01:26:31;;;;;;;0.98;0.90;;;;;;;;;;5054382;28;20204;-82
2022/05/29 01:29:01;;;;;;;2.03;1.20;;;;;;;;;;5007626;28;20718;-82
2022/05/29 01:31:42;;;;;;;1.77;1.20;;;;;;;;;;5058412;28;20190;-82
2022/05/29 01:34:22;;;;;;;4.68;1.42;;;;;;;;;;5057975;28;20186;-82
2022/05/29 01:37:00;;;;;;;2.45;1.20;;;;;;;;;;5057965;28;20197;-81
2022/05/29 01:39:32;;;;;;;3.47;2.05;;;;;;;;;;5058134;28;20182;-82
2022/05/29 01:42:03;;;;;;;1.38;1.10;;;;;;;;;;5057976;28;20186;-82
2022/05/29 01:44:38;;;;;;;2.88;1.80;;;;;;;;;;5057892;28;20197;-82
2022/05/29 01:47:13;;;;;;;5.68;1.70;;;;;;;;;;5057925;28;20667;-82
2022/05/29 01:49:45;;;;;;;2.10;1.40;;;;;;;;;;5057835;28;20201;-83
2022/05/29 01:52:15;;;;;;;1.83;1.73;;;;;;;;;;5057833;28;20193;-82
2022/05/29 01:54:46;;;;;;;2.20;1.27;;;;;;;;;;5058088;28;20194;-82
2022/05/29 01:57:18;;;;;;;3.78;1.60;;;;;;;;;;5057212;28;20189;-82
2022/05/29 01:59:52;;;;;;;4.47;2.08;;;;;;;;;;5058107;28;20183;-82
2022/05/29 02:02:25;;;;;;;2.00;1.38;;;;;;;;;;5056869;28;20209;-82
2022/05/29 02:04:56;;;;;;;2.83;1.70;;;;;;;;;;5057933;28;20190;-83
2022/05/29 02:10:16;;;;;;;2.05;1.70;;;;;;;;;;5057591;28;20189;-82
2022/05/29 02:12:52;;;;;;;3.42;1.60;;;;;;;;;;5057686;28;20190;-82
2022/05/29 02:15:28;;;;;;;3.70;1.50;;;;;;;;;;5057341;28;20205;-82
2022/05/29 02:17:58;;;;;;;2.42;1.52;;;;;;;;;;5057266;28;20227;-82
2022/05/29 02:20:28;;;;;;;5.82;2.28;;;;;;;;;;5057200;28;20198;-83
2022/05/29 02:23:02;;;;;;;2.00;1.45;;;;;;;;;;5056172;28;20198;-82
2022/05/29 02:25:30;;;;;;;3.53;1.75;;;;;;;;;;5057805;28;20188;-81
2022/05/29 02:28:01;;;;;;;3.28;1.70;;;;;;;;;;5056963;28;20233;-82
2022/05/29 02:30:38;;;;;;;3.40;2.20;;;;;;;;;;5057315;28;20647;-82
2022/05/29 02:33:14;;;;;;;2.33;1.55;;;;;;;;;;5056812;28;20204;-82
2022/05/29 02:35:46;;;;;;;2.60;1.42;;;;;;;;;;5057159;28;20205;-82
2022/05/29 02:38:20;;;;;;;2.78;1.65;;;;;;;;;;5056573;28;20283;-82
2022/05/29 02:40:52;;;;;;;2.35;1.02;;;;;;;;;;5056254;28;20182;-82
2022/05/29 02:43:30;;;;;;;1.63;1.40;;;;;;;;;;5056565;28;20582;-82
2022/05/29 02:46:07;;;;;;;2.08;1.67;;;;;;;;;;5056470;28;20209;-81
2022/05/29 02:48:44;;;;;;;1.90;1.73;;;;;;;;;;5056888;28;20608;-82
2022/05/29 02:51:22;;;;;;;3.60;1.40;;;;;;;;;;5056946;28;20186;-81
2022/05/29 02:53:49;;;;;;;3.10;1.95;;;;;;;;;;5056714;28;20205;-82
2022/05/29 02:56:17;;;;;;;3.95;1.90;;;;;;;;;;5056661;28;20209;-82
2022/05/29 02:58:48;;;;;;;2.92;1.60;;;;;;;;;;5056456;28;20597;-82
2022/05/29 03:01:27;;;;;;;2.50;1.50;;;;;;;;;;5056626;28;20185;-81
2022/05/29 03:04:31;;;;;;;2.40;1.23;;;;;;;;;;5056404;28;20201;-82
2022/05/29 03:07:05;;;;;;;3.30;1.70;;;;;;;;;;5056751;28;20201;-81
2022/05/29 03:09:46;;;;;;;3.00;1.65;;;;;;;;;;5057090;28;20296;-82
2022/05/29 03:12:31;;;;;;;3.33;1.60;;;;;;;;;;5056487;28;20244;-82
2022/05/29 03:15:14;;;;;;;2.03;1.65;;;;;;;;;;5056735;28;20201;-82
2022/05/29 03:17:50;;;;;;;2.78;2.58;;;;;;;;;;5056131;28;20213;-82
2022/05/29 03:20:26;;;;;;;2.80;2.00;;;;;;;;;;5056627;28;20205;-82
2022/05/29 03:22:58;;;;;;;3.05;2.30;;;;;;;;;;5056668;28;20667;-82
2022/05/29 03:25:31;;;;;;;6.03;3.03;;;;;;;;;;5056983;28;20590;-82
2022/05/29 03:28:00;;;;;;;2.15;1.42;;;;;;;;;;5056733;28;20221;-82
2022/05/29 03:30:30;;;;;;;1.67;1.58;;;;;;;;;;5057063;28;20658;-82
2022/05/29 03:33:01;;;;;;;2.63;1.80;;;;;;;;;;5055981;28;20205;-82
2022/05/29 03:35:31;;;;;;;3.20;1.88;;;;;;;;;;5056489;28;20192;-82
2022/05/29 03:38:01;;;;;;;4.57;1.67;;;;;;;;;;5056161;28;20226;-82
2022/05/29 03:40:32;;;;;;;1.52;1.42;;;;;;;;;;5056690;28;20197;-82
2022/05/29 03:43:00;;;;;;;1.38;1.17;;;;;;;;;;5056716;28;20524;-82
2022/05/29 03:45:28;;;;;;;3.17;1.40;;;;;;;;;;5056197;28;20689;-82
2022/05/29 03:47:56;;;;;;;4.20;1.83;;;;;;;;;;5056320;28;20222;-82
2022/05/29 03:50:26;;;;;;;1.65;1.30;;;;;;;;;;5055466;28;20205;-82
2022/05/29 03:52:53;;;;;;;2.53;1.40;;;;;;;;;;5055275;28;20209;-82
2022/05/29 03:55:24;;;;;;;3.50;1.85;;;;;;;;;;5056634;28;20202;-82
2022/05/29 03:57:52;;;;;;;2.35;1.40;;;;;;;;;;5056601;28;20747;-81
2022/05/29 04:00:21;;;;;;;2.20;1.77;;;;;;;;;;5055361;28;20198;-82
2022/05/29 04:02:49;;;;;;;2.55;1.20;;;;;;;;;;5056058;28;20212;-81
2022/05/29 04:05:20;;;;;;;1.67;1.30;;;;;;;;;;5056203;28;20201;-82
2022/05/29 04:13:24;;;;;;;5.13;2.47;;;;;;;;;;5056192;28;20208;-82
2022/05/29 04:15:51;;;;;;;3.75;1.33;;;;;;;;;;5055831;28;20255;-82
2022/05/29 04:18:21;;;;;;;1.65;1.35;;;;;;;;;;5056082;28;20222;-81
2022/05/29 04:20:52;;;;;;;3.33;1.90;;;;;;;;;;5056152;28;20605;-81
2022/05/29 04:23:22;;;;;;;1.88;1.73;;;;;;;;;;5055626;28;20221;-82
2022/05/29 04:25:49;;;;;;;5.32;2.10;;;;;;;;;;5055953;28;20208;-81
2022/05/29 04:28:17;;;;;;;3.13;1.90;;;;;;;;;;5056072;28;20221;-81
2022/05/29 04:30:45;;;;;;;2.50;2.03;;;;;;;;;;5055385;28;20201;-81
2022/05/29 04:33:12;;;;;;;2.58;1.60;;;;;;;;;;5055782;28;20201;-82
2022/05/29 04:35:43;;;;;;;2.03;1.83;;;;;;;;;;5056624;28;20297;-82
2022/05/29 04:38:12;;;;;;;3.22;1.42;;;;;;;;;;5055808;28;20229;-82
2022/05/29 04:40:43;;;;;;;3.63;1.88;;;;;;;;;;5055834;28;20198;-83
2022/05/29 04:43:10;;;;;;;2.15;2.00;;;;;;;;;;5055165;28;20205;-82
2022/05/29 04:45:40;;;;;;;3.05;1.80;;;;;;;;;;5056175;28;20198;-82
2022/05/29 04:48:08;;;;;;;4.63;2.20;;;;;;;;;;5055067;28;20701;-82
2022/05/29 04:50:37;;;;;;;2.30;1.58;;;;;;;;;;5036164;28;20202;-82
2022/05/29 04:53:05;;;;;;;2.55;2.15;;;;;;;;;;5035491;28;20207;-82
2022/05/29 04:55:33;;;;;;;4.10;1.75;;;;;;;;;;5036111;28;20198;-82
2022/05/29 04:58:02;;;;;;;2.35;1.60;;;;;;;;;;5035253;28;20694;-82
2022/05/29 05:00:29;;;;;;;3.17;1.95;;;;;;;;;;5035892;28;20264;-82
2022/05/29 05:02:56;;;;;;;2.35;2.00;;;;;;;;;;5035571;28;20198;-82
2022/05/29 05:05:24;;;;;;;3.83;3.33;;;;;;;;;;5038072;28;20198;-81
2022/05/29 05:07:51;;;;;;;12.75;2.83;;;;;;;;;;5039809;28;20734;-82
2022/05/29 05:10:19;;;;;;;1.58;1.48;;;;;;;;;;5039333;28;20640;-82
2022/05/29 05:12:47;;;;;;;2.03;1.88;;;;;;;;;;5039138;28;20206;-82
2022/05/29 05:15:17;;;;;;;2.28;2.00;;;;;;;;;;5040329;28;20198;-82
2022/05/29 05:17:45;;;;;;;4.63;3.13;;;;;;;;;;5039923;28;20333;-82
2022/05/29 05:20:13;;;;;;;7.20;2.08;;;;;;;;;;5056323;28;20243;-82
2022/05/29 05:22:41;;;;;;;2.88;1.98;;;;;;;;;;5059390;28;20265;-82
2022/05/29 05:25:10;;;;;;;4.43;2.97;;;;;;;;;;5058965;28;20202;-83
2022/05/29 05:27:38;;;;;;;2.65;1.67;;;;;;;;;;5058678;28;20267;-83
2022/05/29 05:30:07;;;;;;;2.60;1.77;;;;;;;;;;5058686;28;20221;-82
2022/05/29 05:32:35;;;;;;;1.63;1.52;;;;;;;;;;5058745;28;20210;-82
2022/05/29 05:35:07;;;;;;;1.17;1.10;;;;;;;;;;5058797;28;20658;-83
2022/05/29 05:37:36;;;;;;;2.65;1.65;;;;;;;;;;5058786;28;20261;-83
2022/05/29 05:40:06;;;;;;;2.60;1.70;;;;;;;;;;5059894;28;20273;-83
2022/05/29 05:42:33;;;;;;;4.00;1.55;;;;;;;;;;5056041;28;20579;-88
2022/05/29 05:45:01;;;;;;;1.55;1.45;;;;;;;;;;5055493;28;20197;-88
2022/05/29 05:47:28;;;;;;;4.45;1.90;;;;;;;;;;5055306;28;20228;-88
2022/05/29 05:49:57;;;;;;;5.20;1.95;;;;;;;;;;5055370;28;20232;-88
2022/05/29 05:52:24;;;;;;;2.22;1.70;;;;;;;;;;5054921;28;20658;-88
2022/05/29 05:54:51;;;;;;;3.83;1.80;;;;;;;;;;5055244;28;20255;-88
2022/05/29 05:57:19;;;;;;;2.55;2.10;;;;;;;;;;5055266;28;20202;-87
2022/05/29 05:59:47;;;;;;;6.15;2.67;;;;;;;;;;5055227;28;20197;-88
2022/05/29 06:02:15;;;;;;;5.60;2.65;;;;;;;;;;5055522;28;20225;-89
2022/05/29 06:04:44;;;;;;;3.22;2.13;;;;;;;;;;5054748;28;20202;-89
2022/05/29 06:07:13;;;;;;;2.80;2.00;;;;;;;;;;5055130;28;20198;-88
2022/05/29 06:09:40;;;;;;;2.88;1.83;;;;;;;;;;5054917;28;20229;-88
2022/05/29 06:12:09;;;;;;;3.40;1.98;;;;;;;;;;5054860;28;20693;-88
2022/05/29 06:14:37;;;;;;;2.13;1.73;;;;;;;;;;5054937;28;20225;-87
2022/05/29 06:17:05;;;;;;;4.07;2.25;;;;;;;;;;5054309;28;20564;-89
2022/05/29 06:19:33;;;;;;;5.10;1.80;;;;;;;;;;5054457;28;20209;-88
2022/05/29 06:22:00;;;;;;;2.63;2.03;;;;;;;;;;5054561;28;20205;-88
2022/05/29 06:24:29;;;;;;;3.78;2.10;;;;;;;;;;5054880;28;20201;-88
2022/05/29 06:26:58;;;;;;;3.15;2.10;;;;;;;;;;5055117;28;20209;-88
2022/05/29 06:29:26;;;;;;;3.92;1.70;;;;;;;;;;5054840;28;20202;-88
2022/05/29 06:31:54;;;;;;;2.40;1.63;;;;;;;;;;5054158;28;20206;-88
2022/05/29 06:34:22;;;;;;;2.42;1.67;;;;;;;;;;5054923;28;20728;-89
2022/05/29 06:36:49;;;;;;;2.58;1.60;;;;;;;;;;5054720;28;20281;-88
2022/05/29 06:39:16;;;;;;;2.55;1.70;;;;;;;;;;5053903;28;20240;-88
2022/05/29 06:41:45;;;;;;;2.05;1.88;;;;;;;;;;5053978;28;20208;-88
2022/05/29 06:44:12;;;;;;;5.13;2.25;;;;;;;;;;5053728;28;20206;-87
2022/05/29 06:46:40;;;;;;;5.40;1.80;;;;;;;;;;5054319;28;20198;-86
2022/05/29 06:49:07;;;;;;;9.30;2.30;;;;;;;;;;5054364;28;20229;-88
2022/05/29 06:51:35;;;;;;;2.22;2.00;;;;;;;;;;5054090;28;20221;-88
2022/05/29 06:54:04;;;;;;;1.42;1.33;;;;;;;;;;5054242;28;20197;-87
2022/05/29 06:56:31;;;;;;;1.48;1.38;;;;;;;;;;5054007;28;20205;-88
2022/05/29 06:59:01;;;;;;;1.50;1.40;;;;;;;;;;5054257;28;20217;-87
2022/05/29 07:07:06;;;;;;;2.30;1.60;;;;;;;;;;5054243;28;20331;-88
2022/05/29 07:09:37;;;;;;;1.80;1.25;;;;;;;;;;5053984;28;20201;-88
2022/05/29 07:12:09;;;;;;;2.95;1.95;;;;;;;;;;5053824;28;20221;-88
2022/05/29 07:14:41;;;;;;;1.73;1.15;;;;;;;;;;5053992;28;20568;-89
2022/05/29 07:17:08;;;;;;;4.05;2.00;;;;;;;;;;5053742;28;20201;-89
2022/05/29 07:19:36;;;;;;;1.67;1.38;;;;;;;;;;5053541;28;20293;-89
2022/05/29 07:22:04;;;;;;;3.05;1.27;;;;;;;;;;5053088;28;20255;-87
2022/05/29 07:24:35;;;;;;;1.83;1.30;;;;;;;;;;5053831;28;20212;-87
2022/05/29 07:27:02;;;;;;;1.33;1.10;;;;;;;;;;5052744;28;20195;-86
2022/05/29 07:29:29;;;;;;;5.38;1.60;;;;;;;;;;5053589;28;20251;-87
2022/05/29 07:32:06;;;;;;;2.33;1.55;;;;;;;;;;5053547;28;20225;-92
2022/05/29 07:34:58;;;;;;;1.40;1.20;;;;;;;;;;5054508;28;20299;-89
2022/05/29 07:37:26;;;;;;;1.50;1.40;;;;;;;;;;5056322;28;20233;-86
2022/05/29 07:39:55;;;;;;;2.50;1.70;;;;;;;;;;5058533;28;20220;-90
2022/05/29 07:45:11;;;;;;;1.05;0.98;;;;;;;;;;5055285;28;20204;-90
2022/05/29 07:47:42;;;;;;;1.50;1.23;;;;;;;;;;5054497;28;20248;-90
2022/05/29 07:50:15;;;;;;;2.85;1.67;;;;;;;;;;5058688;28;20254;-90
2022/05/29 07:52:44;;;;;;;3.20;1.40;;;;;;;;;;5055071;28;20205;-88
2022/05/29 07:55:11;;;;;;;3.80;1.45;;;;;;;;;;5054280;28;20297;-88
2022/05/29 07:57:38;;;;;;;4.57;1.83;;;;;;;;;;5052819;28;20214;-87
2022/05/29 08:00:08;;;;;;;3.95;1.23;;;;;;;;;;5053219;28;20200;-88
2022/05/29 08:02:38;;;;;;;1.50;1.20;;;;;;;;;;5052535;28;20209;-88
2022/05/29 08:05:08;;;;;;;1.33;1.00;;;;;;;;;;5052975;28;20205;-89
2022/05/29 08:07:35;;;;;;;1.95;1.40;;;;;;;;;;5053377;28;20218;-89
2022/05/29 08:10:03;;;;;;;1.95;1.45;;;;;;;;;;5052955;28;20189;-87
2022/05/29 08:12:30;;;;;;;1.33;1.10;;;;;;;;;;5052809;28;20226;-89
2022/05/29 08:14:57;;;;;;;2.15;1.00;;;;;;;;;;5053076;28;20217;-89
2022/05/29 08:17:25;;;;;;;2.08;1.20;;;;;;;;;;5053323;28;20226;-85
2022/05/29 08:19:53;;;;;;;2.20;1.30;;;;;;;;;;5053317;28;20190;-83
2022/05/29 08:22:21;;;;;;;2.55;1.75;;;;;;;;;;5055476;28;20197;-84
2022/05/29 08:33:10;;;;;;;1.95;1.23;;;;;;;;;;5056189;28;20181;-83
2022/05/29 08:35:39;;;;;;;1.00;0.90;;;;;;;;;;5056784;28;20223;-83
2022/05/29 08:38:08;;;;;;;1.20;1.10;;;;;;;;;;5055291;28;20710;-84
2022/05/29 08:40:42;;;;;;;3.40;2.67;;;;;;;;;;5055063;28;20197;-83
2022/05/29 08:43:17;;;;;;;9.13;7.30;;;;;;;;;;5055128;28;20752;-83
2022/05/29 08:45:46;;;;;;;4.03;2.78;;;;;;;;;;5055516;28;20173;-83
2022/05/29 08:48:15;;;;;;;3.38;2.50;;;;;;;;;;5054836;28;20218;-83
2022/05/29 08:50:48;;;;;;;1.73;1.35;;;;;;;;;;5055044;28;20252;-83
2022/05/29 08:53:27;;;;;;;1.60;1.50;;;;;;;;;;5055186;28;20658;-83
2022/05/29 08:56:00;;;;;;;1.50;1.10;;;;;;;;;;5054868;28;20182;-83
2022/05/29 08:58:52;;;;;;;2.63;1.73;;;;;;;;;;5054648;28;20343;-82
2022/05/29 09:01:25;;;;;;;2.17;2.00;;;;;;;;;;5054753;28;20201;-83
2022/05/29 09:03:58;;;;;;;1.38;1.25;;;;;;;;;;5054858;28;20643;-83
2022/05/29 09:06:31;;;;;;;1.70;1.60;;;;;;;;;;5054905;28;20174;-83
2022/05/29 09:09:06;;;;;;;1.88;1.23;;;;;;;;;;5054608;28;20213;-83
2022/05/29 09:11:37;;;;;;;1.20;1.10;;;;;;;;;;5054880;28;20209;-83
2022/05/29 09:14:13;;;;;;;2.78;1.55;;;;;;;;;;5054969;28;20608;-83
2022/05/29 09:16:44;;;;;;;1.88;1.13;;;;;;;;;;5054944;28;20196;-83
2022/05/29 09:19:23;;;;;;;1.45;1.20;;;;;;;;;;5054529;28;20627;-83
2022/05/29 09:21:55;;;;;;;1.85;1.00;;;;;;;;;;5054812;28;20205;-83
2022/05/29 09:24:56;;;;;;;2.25;2.05;;;;;;;;;;5054441;28;20584;-83
2022/05/29 09:27:23;;;;;;;2.03;1.65;;;;;;;;;;5053460;28;20229;-88
2022/05/29 09:29:52;;;;;;;2.25;1.58;;;;;;;;;;5052674;28;20194;-86
2022/05/29 09:32:23;;;;;;;1.80;1.30;;;;;;;;;;5053533;28;20232;-85
2022/05/29 09:35:01;;;;;;;1.42;0.93;;;;;;;;;;5055679;28;20575;-84
2022/05/29 09:37:43;;;;;;;2.10;1.10;;;;;;;;;;5055250;28;20236;-84
2022/05/29 09:40:17;;;;;;;0.90;0.90;;;;;;;;;;5054009;28;20205;-83
2022/05/29 09:42:45;;;;;;;2.35;1.20;;;;;;;;;;5053711;28;20324;-84
2022/05/29 09:45:16;;;;;;;1.20;1.10;;;;;;;;;;5055259;28;20182;-83
2022/05/29 09:50:44;;;;;;;3.25;1.15;;;;;;;;;;5055555;28;20601;-84
2022/05/29 09:53:19;;;;;;;1.52;1.23;;;;;;;;;;5057437;28;20560;-84
2022/05/29 09:55:53;;;;;;;3.88;2.75;;;;;;;;;;5057532;28;20216;-85
2022/05/29 09:58:27;;;;;;;1.50;1.30;;;;;;;;;;5058364;28;20221;-86
2022/05/29 10:00:57;;;;;;;1.45;1.35;;;;;;;;;;5057451;28;20291;-86
2022/05/29 10:03:43;;;;;;;1.50;1.40;;;;;;;;;;5057180;28;20550;-86
2022/05/29 10:06:15;;;;;;;2.20;1.67;;;;;;;;;;5057377;28;20205;-86
2022/05/29 10:08:45;;;;;;;3.15;1.95;;;;;;;;;;5055986;28;20221;-87
2022/05/29 10:11:24;;;;;;;1.70;1.33;;;;;;;;;;5054823;28;20240;-86
2022/05/29 10:13:53;;;;;;;1.30;1.20;;;;;;;;;;5054516;28;20234;-86
2022/05/29 10:16:35;;;;;;;1.60;1.50;;;;;;;;;;5055342;28;20213;-86
2022/05/29 10:19:04;;;;;;;5.80;1.95;;;;;;;;;;5056336;28;20229;-85
2022/05/29 10:21:33;;;;;;;1.13;1.02;;;;;;;;;;5057373;28;20301;-85
2022/05/29 10:24:22;;;;;;;2.65;1.30;;;;;;;;;;5071417;28;20201;-84
2022/05/29 10:26:52;;;;;;;1.63;1.35;;;;;;;;;;5077887;28;20197;-85
2022/05/29 10:29:27;;;;;;;1.52;1.38;;;;;;;;;;5077160;28;20217;-85
2022/05/29 10:31:55;;;;;;;2.65;1.58;;;;;;;;;;5077375;28;20242;-86
2022/05/29 10:34:26;;;;;;;3.40;1.30;;;;;;;;;;5077985;28;20246;-86
2022/05/29 10:36:56;;;;;;;1.40;1.00;;;;;;;;;;5077477;28;20224;-84
2022/05/29 10:39:28;;;;;;;2.03;1.42;;;;;;;;;;5077008;28;20596;-86
2022/05/29 10:41:58;;;;;;;1.77;1.38;;;;;;;;;;5077521;28;20631;-84
2022/05/29 10:44:43;;;;;;;1.75;1.50;;;;;;;;;;5077371;28;20231;-85
2022/05/29 10:47:23;;;;;;;2.55;1.52;;;;;;;;;;5077337;28;20276;-85
2022/05/29 10:50:04;;;;;;;2.42;1.55;;;;;;;;;;5062526;28;20201;-89
2022/05/29 10:52:50;;;;;;;2.00;1.15;;;;;;;;;;5054230;28;20229;-90
2022/05/29 10:55:33;;;;;;;1.80;1.33;;;;;;;;;;5056212;28;20209;-91
2022/05/29 10:58:38;;;;;;;4.10;1.60;;;;;;;;;;5056497;28;20602;-90
2022/05/29 11:04:52;;;;;;;1.75;1.65;;;;;;;;;;5054752;28;20185;-90
2022/05/29 11:07:31;;;;;;;3.25;1.50;;;;;;;;;;5054006;28;20205;-90
2022/05/29 11:10:20;;;;;;;0.90;0.90;;;;;;;;;;5053846;28;20208;-90
2022/05/29 11:13:03;;;;;;;0.80;0.80;;;;;;;;;;5055028;28;20221;-90
2022/05/29 11:15:40;;;;;;;1.52;1.13;;;;;;;;;;5059050;28;20174;-89
2022/05/29 11:18:43;;;;;;;0.70;0.70;;;;;;;;;;5054873;28;20224;-90
2022/05/29 11:21:17;;;;;;;0.80;0.80;;;;;;;;;;5055588;28;20201;-90
2022/05/29 11:24:10;;;;;;;0.55;0.55;;;;;;;;;;5053927;28;20186;-91
2022/05/29 11:26:49;;;;;;;1.15;0.90;;;;;;;;;;5054527;28;20194;-90
2022/05/29 11:29:48;;;;;;;0.75;0.70;;;;;;;;;;5054011;28;20232;-89
2022/05/29 11:32:26;;;;;;;0.88;0.88;;;;;;;;;;5048880;28;20201;-88
2022/05/29 11:35:10;;;;;;;1.17;0.70;;;;;;;;;;5053343;28;20178;-87
2022/05/29 11:37:51;;;;;;;0.73;0.73;;;;;;;;;;5051774;28;20709;-89
2022/05/29 11:40:22;;;;;;;0.70;0.70;;;;;;;;;;5053790;28;20198;-89
2022/05/29 11:42:57;;;;;;;1.08;1.00;;;;;;;;;;5053678;28;20220;-88
2022/05/29 11:51:15;;;;;;;0.98;0.98;;;;;;;;;;5055199;28;20585;-83
2022/05/29 11:53:50;;;;;;;0.85;0.85;;;;;;;;;;5055816;28;20320;-85
2022/05/29 11:56:25;;;;;;;2.50;1.42;;;;;;;;;;5055916;28;20197;-85
2022/05/29 11:59:01;;;;;;;1.27;1.17;;;;;;;;;;5056541;28;20212;-85
2022/05/29 12:01:35;;;;;;;0.80;0.80;;;;;;;;;;5055803;28;20208;-84
2022/05/29 12:04:09;;;;;;;1.60;1.50;;;;;;;;;;5056084;28;20190;-85
2022/05/29 12:06:42;;;;;;;1.55;1.35;;;;;;;;;;5053801;28;20211;-87
2022/05/29 12:09:17;;;;;;;3.20;2.75;;;;;;;;;;5066909;22;20328;-78
2022/05/29 12:11:48;;;;;;;3.22;0.93;;;;;;;;;;5052152;28;20304;-79
2022/05/29 12:14:20;;;;;;;1.65;0.82;;;;;;;;;;5052778;28;20257;-78
2022/05/29 12:16:53;;;;;;;0.80;0.80;;;;;;;;;;5053447;28;20205;-79
2022/05/29 12:19:24;;;;;;;0.90;0.90;;;;;;;;;;5052905;28;20267;-78
2022/05/29 12:21:54;;;;;;;0.93;0.93;;;;;;;;;;5052042;28;20221;-79
2022/05/29 12:24:25;;;;;;;0.80;0.80;;;;;;;;;;5052253;28;20197;-79
2022/05/29 12:26:59;;;;;;;0.80;0.80;;;;;;;;;;5053277;28;20206;-79
2022/05/29 12:29:30;;;;;;;0.90;0.90;;;;;;;;;;5052900;28;20213;-79
2022/05/29 12:32:02;;;;;;;1.05;1.05;;;;;;;;;;5052224;28;20226;-78
2022/05/29 12:34:33;;;;;;;1.67;1.13;;;;;;;;;;5052317;28;20693;-78
2022/05/29 12:37:56;;;;;;;1.42;1.33;;;;;;;;;;5051407;28;20218;-79
2022/05/29 12:40:39;;;;;;;0.95;0.85;;;;;;;;;;5034969;28;20205;-79
2022/05/29 12:43:45;;;;;;;0.80;0.80;;;;;;;;;;5052056;28;20209;-79
2022/05/29 12:46:30;;;;;;;1.42;1.00;;;;;;;;;;5053148;28;20251;-79
2022/05/29 12:49:34;;;;;;;1.73;1.25;;;;;;;;;;5059634;28;20645;-78
2022/05/29 12:52:17;;;;;;;2.20;1.50;;;;;;;;;;5071822;28;20220;-81
2022/05/29 12:55:13;;;;;;;0.82;0.82;;;;;;;;;;5070229;28;20227;-80
2022/05/29 12:58:08;;;;;;;1.67;1.40;;;;;;;;;;5073188;28;20647;-80
2022/05/29 13:00:50;;;;;;;1.25;1.00;;;;;;;;;;5072975;28;20723;-79
2022/05/29 13:03:59;;;;;;;0.95;0.93;;;;;;;;;;5072274;28;20225;-80
2022/05/29 13:07:05;;;;;;;1.27;1.17;;;;;;;;;;5072502;28;20254;-79
2022/05/29 13:10:09;;;;;;;2.45;1.20;;;;;;;;;;5072513;28;20209;-80
2022/05/29 13:12:41;;;;;;;1.38;1.27;;;;;;;;;;5032036;28;20576;-79
2022/05/29 13:15:12;;;;;;;2.13;1.42;;;;;;;;;;5033661;28;20248;-79
2022/05/29 13:17:41;;;;;;;1.70;1.60;;;;;;;;;;5040131;28;20289;-79
2022/05/29 13:20:15;;;;;;;1.60;1.50;;;;;;;;;;5051755;28;20205;-80
2022/05/29 13:22:54;;;;;;;1.33;1.23;;;;;;;;;;5051693;28;20606;-79
2022/05/29 13:25:24;;;;;;;1.30;1.20;;;;;;;;;;5052657;28;20200;-80
2022/05/29 13:27:53;;;;;;;2.58;1.67;;;;;;;;;;5055776;28;20263;-79
2022/05/29 13:31:05;;;;;;;1.27;1.23;;;;;;;;;;5056115;28;20209;-80
2022/05/29 13:33:46;;;;;;;2.10;1.00;;;;;;;;;;5055064;28;20641;-78
2022/05/29 13:37:09;;;;;;;1.10;1.02;;;;;;;;;;5056058;28;20198;-80
2022/05/29 13:40:06;;;;;;;1.65;0.80;;;;;;;;;;5022412;28;20233;-80
2022/05/29 13:42:43;;;;;;;1.48;1.08;;;;;;;;;;5055126;28;20296;-79
2022/05/29 13:46:20;;;;;;;2.10;1.40;;;;;;;;;;5056213;28;20554;-80
2022/05/29 13:49:21;;;;;;;0.70;0.70;;;;;;;;;;4993771;28;20262;-79
2022/05/29 13:51:50;;;;;;;0.80;0.80;;;;;;;;;;5012598;28;20226;-78
2022/05/29 13:54:27;;;;;;;1.38;0.85;;;;;;;;;;5047084;28;20581;-79
2022/05/29 13:57:05;;;;;;;0.90;0.88;;;;;;;;;;5055490;28;20205;-79
2022/05/29 14:05:35;;;;;;;0.80;0.80;;;;;;;;;;5029817;28;20678;-79
2022/05/29 14:08:34;;;;;;;1.20;0.75;;;;;;;;;;5055478;28;20213;-80
2022/05/29 14:11:15;;;;;;;1.63;1.15;;;;;;;;;;5055656;28;20221;-78
2022/05/29 14:13:47;;;;;;;1.30;0.90;;;;;;;;;;5054402;28;20297;-79
2022/05/29 14:16:37;;;;;;;1.27;0.90;;;;;;;;;;5054606;28;20205;-79
2022/05/29 14:19:25;;;;;;;1.02;1.02;;;;;;;;;;5062798;28;20205;-80
2022/05/29 14:22:16;;;;;;;0.95;0.95;;;;;;;;;;5074139;28;20225;-79
2022/05/29 14:25:11;;;;;;;2.35;1.58;;;;;;;;;;5075741;28;20197;-80
2022/05/29 14:28:07;;;;;;;1.70;1.60;;;;;;;;;;5065342;28;20205;-79
2022/05/29 14:31:08;;;;;;;4.97;1.38;;;;;;;;;;5055383;28;20592;-80
2022/05/29 14:34:17;;;;;;;1.20;1.10;;;;;;;;;;5054433;28;20300;-80
2022/05/29 14:37:00;;;;;;;0.95;0.95;;;;;;;;;;5054402;28;20674;-80
2022/05/29 14:39:37;;;;;;;1.00;0.90;;;;;;;;;;5054976;28;20666;-79
2022/05/29 14:42:11;;;;;;;3.60;1.35;;;;;;;;;;5054369;28;20278;-80
2022/05/29 14:44:42;;;;;;;3.25;1.35;;;;;;;;;;5054900;28;20624;-80
2022/05/29 14:47:15;;;;;;;1.38;1.27;;;;;;;;;;5054801;28;20209;-79
2022/05/29 14:49:56;;;;;;;1.45;1.35;;;;;;;;;;5054807;28;20206;-80
2022/05/29 14:52:33;;;;;;;1.95;1.58;;;;;;;;;;5054050;28;20616;-79
2022/05/29 14:55:11;;;;;;;1.60;1.10;;;;;;;;;;5054225;28;20228;-79
2022/05/29 14:57:49;;;;;;;0.85;0.85;;;;;;;;;;5063511;28;20226;-79
2022/05/29 15:00:40;;;;;;;1.60;1.10;;;;;;;;;;5074532;28;20200;-79
2022/05/29 15:03:17;;;;;;;0.70;0.70;;;;;;;;;;5068220;28;20208;-80
2022/05/29 15:05:51;;;;;;;0.60;0.60;;;;;;;;;;5074355;28;20204;-79
2022/05/29 15:11:09;;;;;;;0.70;0.70;;;;;;;;;;5074016;28;20307;-79
2022/05/29 15:14:00;;;;;;;0.90;0.90;;;;;;;;;;5073548;28;20277;-81
2022/05/29 15:16:31;;;;;;;0.75;0.75;;;;;;;;;;5074190;28;20307;-79
2022/05/29 15:19:13;;;;;;;1.23;0.90;;;;;;;;;;5074033;28;20571;-80
2022/05/29 15:24:31;;;;;;;1.15;1.15;;;;;;;;;;5075989;28;20288;-78
2022/05/29 15:27:04;;;;;;;0.90;0.90;;;;;;;;;;5069949;28;20228;-80
2022/05/29 15:29:35;;;;;;;1.05;0.85;;;;;;;;;;5056416;28;20255;-79
2022/05/29 15:32:08;;;;;;;1.30;0.93;;;;;;;;;;5053144;28;20705;-79
2022/05/29 15:34:58;;;;;;;1.42;1.00;;;;;;;;;;5053085;28;20197;-79
2022/05/29 15:37:49;;;;;;;1.00;1.00;;;;;;;;;;5053572;28;20573;-79
2022/05/29 15:40:50;;;;;;;1.17;1.08;;;;;;;;;;5053630;28;20201;-79
2022/05/29 15:43:51;;;;;;;1.30;1.20;;;;;;;;;;5052387;28;20205;-78
2022/05/29 15:46:33;;;;;;;1.40;1.20;;;;;;;;;;5053444;28;20204;-79
2022/05/29 15:49:54;;;;;;;0.95;0.95;;;;;;;;;;5052839;28;20584;-81
2022/05/29 15:52:36;;;;;;;0.85;0.85;;;;;;;;;;5050857;28;20232;-79
2022/05/29 15:55:22;;;;;;;1.25;1.00;;;;;;;;;;5053470;28;20217;-78
2022/05/29 15:57:50;;;;;;;0.98;0.90;;;;;;;;;;5053096;28;20217;-79
2022/05/29 16:00:20;;;;;;;1.10;1.10;;;;;;;;;;5052830;28;20656;-79
2022/05/29 16:02:58;;;;;;;1.95;1.85;;;;;;;;;;5052352;28;20267;-79
2022/05/29 16:05:31;;;;;;;0.90;0.90;;;;;;;;;;5053066;28;20201;-78
2022/05/29 16:08:20;;;;;;;1.63;1.52;;;;;;;;;;5052787;28;20201;-78
2022/05/29 16:10:50;;;;;;;1.30;1.20;;;;;;;;;;5052987;28;20224;-78
2022/05/29 16:13:42;;;;;;;1.45;1.33;;;;;;;;;;5052401;28;20205;-80
2022/05/29 16:16:14;;;;;;;0.80;0.80;;;;;;;;;;5052739;28;20261;-79
2022/05/29 16:19:30;;;;;;;1.27;0.90;;;;;;;;;;5052194;28;20241;-79
2022/05/29 16:22:26;;;;;;;0.70;0.70;;;;;;;;;;5040010;28;20304;-78